Bienville, Louisiana
Current Conditions -  °F | °C
As of 11:35 AM on Thursday 23 Oct 2014 (Local Time) from KRSN Reporting Station
Clear Clear  
Wind Chill: 57°   Ceiling: Unl
Heat Index: 57°   Visibility: 10mi
Dew Point: 52°   Wind: 0mph
Humidity: 83%   Direction: NA
Pressure: 30.22"   Gusts: NA
Location:  32.36°N, 92.98°W
Report Text: KRSN 231635Z AUTO 00000KT 10SM CLR 14/11 A3022 RMK AO2 T01410113
Loading
Personal Weather Stations






























Interactive Weather Map
Tropical Storm Tracking
New forecast layout! Learn more

10-Day Weather Forecast

Advertisements
Track Severe Weather on mobile